Portada
METAR-TAF:

METAR-TAF

Aeroports :

Abakan, Rússia

latitud: 53-45N, longitud: 091-24E, altitud: 245 m

Observació

L'informe es va fer fa 28 minuts, a les 02:00 UTC
Vent calma
Temperatura -15°C
Humitat 85%
Pressió 1021 hPa
Visibilitat: 0750 m
Escasses núvols a una alçada de 200 ft
Parcialment cobert per la boira, fum

METAR: UNAA 270200Z 00000MPS 6000 0750SW R02/0750D PRFG FU FEW002 M15/M17 Q1021 R02/090060 NOSIG RMK QBB060 QFE743

Hora: 09:28 (02:28 UTC)

Pronòstic

L'informe es va fer fa 1 hora i 36 minuts, a les 00:52 UTC
Pronòstic vàlid del 27 a les 00 UTC al 27 a les 24 UTC
Vent 6 kt del Nord/Nord-Oest
Visibilitat: 6000 m
Temporalment
l' 27 a les 00 UTC al 27 a les 04 UTC
Visibilitat: 0300 m
Núvols disperses a una alçada de 200 ft
boira gebradora, fum

TAF: UNAA 270052Z 2700/2724 34003MPS 6000 NSC TEMPO 2700/2704 0300 FZFG FU SCT002

Observacions i pronòstics meteorològics de més de 4000 aeroports (METAR i TAF).

Les estacions disponibles són els punts grocs i vermells al mapa.

Posi el ratolí al punt desitjat per veure el nom de l'estació.

Feu clic per veure les observacions i els pronòstics meteorològics.

Per canviar el mapa: feu clic els botons verds amb una creu de color negre per apropar; al botó verd amb un guió per allunyar la imatge; o en les fletxes verdes per a mapes adjacents.


METAR-TAF: